sensor_id;sensor_type;location;lat;lon;timestamp;P1;durP1;ratioP1;P2;durP2;ratioP2
72113;SDS011;59989;46.220;19.888;2022-08-19T00:02:38;12.88;;;5.90;;
72113;SDS011;59989;46.220;19.888;2022-08-19T00:05:51;11.67;;;5.83;;
72113;SDS011;59989;46.220;19.888;2022-08-19T00:08:53;15.90;;;6.28;;
72113;SDS011;59989;46.220;19.888;2022-08-19T00:11:57;13.40;;;6.38;;
72113;SDS011;59989;46.220;19.888;2022-08-19T00:15:00;12.55;;;6.35;;
72113;SDS011;59989;46.220;19.888;2022-08-19T00:18:03;15.07;;;6.13;;
72113;SDS011;59989;46.220;19.888;2022-08-19T00:21:05;16.00;;;5.90;;
72113;SDS011;59989;46.220;19.888;2022-08-19T00:24:12;14.93;;;6.38;;
72113;SDS011;59989;46.220;19.888;2022-08-19T00:27:16;14.20;;;6.38;;
72113;SDS011;59989;46.220;19.888;2022-08-19T00:30:28;12.02;;;6.32;;
72113;SDS011;59989;46.220;19.888;2022-08-19T00:33:31;12.52;;;6.72;;
72113;SDS011;59989;46.220;19.888;2022-08-19T00:36:34;12.43;;;6.70;;
72113;SDS011;59989;46.220;19.888;2022-08-19T00:39:37;12.00;;;6.45;;
72113;SDS011;59989;46.220;19.888;2022-08-19T00:42:39;12.80;;;6.82;;
72113;SDS011;59989;46.220;19.888;2022-08-19T00:45:42;12.07;;;6.32;;
72113;SDS011;59989;46.220;19.888;2022-08-19T00:48:45;14.98;;;6.97;;
72113;SDS011;59989;46.220;19.888;2022-08-19T00:51:48;12.93;;;7.13;;
72113;SDS011;59989;46.220;19.888;2022-08-19T00:54:53;13.80;;;7.05;;
72113;SDS011;59989;46.220;19.888;2022-08-19T00:58:05;14.50;;;7.40;;
72113;SDS011;59989;46.220;19.888;2022-08-19T01:01:11;13.93;;;6.95;;
72113;SDS011;59989;46.220;19.888;2022-08-19T01:04:15;13.95;;;7.00;;
72113;SDS011;59989;46.220;19.888;2022-08-19T01:07:18;14.27;;;7.50;;
72113;SDS011;59989;46.220;19.888;2022-08-19T01:10:23;14.35;;;7.78;;
72113;SDS011;59989;46.220;19.888;2022-08-19T01:13:29;17.77;;;6.90;;
72113;SDS011;59989;46.220;19.888;2022-08-19T01:16:51;14.95;;;7.55;;
72113;SDS011;59989;46.220;19.888;2022-08-19T01:19:56;12.98;;;7.13;;
72113;SDS011;59989;46.220;19.888;2022-08-19T01:22:58;18.03;;;7.77;;
72113;SDS011;59989;46.220;19.888;2022-08-19T01:26:01;13.65;;;7.32;;
72113;SDS011;59989;46.220;19.888;2022-08-19T01:29:03;14.02;;;7.63;;
72113;SDS011;59989;46.220;19.888;2022-08-19T01:32:07;15.65;;;7.82;;
72113;SDS011;59989;46.220;19.888;2022-08-19T01:35:34;14.70;;;8.30;;
72113;SDS011;59989;46.220;19.888;2022-08-19T01:38:38;15.53;;;7.20;;
72113;SDS011;59989;46.220;19.888;2022-08-19T01:41:46;14.10;;;7.70;;
72113;SDS011;59989;46.220;19.888;2022-08-19T01:44:48;15.52;;;7.45;;
72113;SDS011;59989;46.220;19.888;2022-08-19T01:47:51;13.88;;;8.10;;
72113;SDS011;59989;46.220;19.888;2022-08-19T01:51:03;14.60;;;7.55;;
72113;SDS011;59989;46.220;19.888;2022-08-19T01:54:07;13.63;;;8.23;;
72113;SDS011;59989;46.220;19.888;2022-08-19T01:57:12;14.15;;;8.00;;
72113;SDS011;59989;46.220;19.888;2022-08-19T02:00:16;14.07;;;7.55;;
72113;SDS011;59989;46.220;19.888;2022-08-19T02:03:21;12.75;;;7.55;;
72113;SDS011;59989;46.220;19.888;2022-08-19T02:06:24;15.38;;;7.75;;
72113;SDS011;59989;46.220;19.888;2022-08-19T02:09:28;12.67;;;7.90;;
72113;SDS011;59989;46.220;19.888;2022-08-19T02:12:30;14.07;;;7.63;;
72113;SDS011;59989;46.220;19.888;2022-08-19T02:15:33;15.23;;;8.18;;
72113;SDS011;59989;46.220;19.888;2022-08-19T02:18:36;14.38;;;8.00;;
72113;SDS011;59989;46.220;19.888;2022-08-19T02:21:38;15.02;;;8.00;;
72113;SDS011;59989;46.220;19.888;2022-08-19T02:24:41;13.77;;;7.77;;
72113;SDS011;59989;46.220;19.888;2022-08-19T02:27:44;16.35;;;8.27;;
72113;SDS011;59989;46.220;19.888;2022-08-19T02:30:47;15.20;;;8.55;;
72113;SDS011;59989;46.220;19.888;2022-08-19T02:33:49;18.13;;;8.93;;
72113;SDS011;59989;46.220;19.888;2022-08-19T02:36:52;14.40;;;8.77;;
72113;SDS011;59989;46.220;19.888;2022-08-19T02:39:55;16.80;;;8.93;;
72113;SDS011;59989;46.220;19.888;2022-08-19T02:42:57;15.52;;;8.90;;
72113;SDS011;59989;46.220;19.888;2022-08-19T02:46:00;16.70;;;8.80;;
72113;SDS011;59989;46.220;19.888;2022-08-19T02:49:04;16.35;;;9.10;;
72113;SDS011;59989;46.220;19.888;2022-08-19T02:52:07;15.63;;;9.57;;
72113;SDS011;59989;46.220;19.888;2022-08-19T02:55:10;14.83;;;8.53;;
72113;SDS011;59989;46.220;19.888;2022-08-19T02:58:13;16.52;;;9.15;;
72113;SDS011;59989;46.220;19.888;2022-08-19T03:01:24;13.45;;;8.57;;
72113;SDS011;59989;46.220;19.888;2022-08-19T03:04:31;13.50;;;8.70;;
72113;SDS011;59989;46.220;19.888;2022-08-19T03:07:33;14.52;;;8.48;;
72113;SDS011;59989;46.220;19.888;2022-08-19T03:10:39;14.97;;;8.70;;
72113;SDS011;59989;46.220;19.888;2022-08-19T03:13:46;14.32;;;8.50;;
72113;SDS011;59989;46.220;19.888;2022-08-19T03:16:49;14.57;;;8.27;;
72113;SDS011;59989;46.220;19.888;2022-08-19T03:19:53;13.13;;;8.23;;
72113;SDS011;59989;46.220;19.888;2022-08-19T03:22:56;13.65;;;8.40;;
72113;SDS011;59989;46.220;19.888;2022-08-19T03:25:58;14.87;;;9.03;;
72113;SDS011;59989;46.220;19.888;2022-08-19T03:29:18;16.90;;;9.55;;
72113;SDS011;59989;46.220;19.888;2022-08-19T03:32:32;17.20;;;9.38;;
72113;SDS011;59989;46.220;19.888;2022-08-19T03:35:34;18.27;;;9.52;;
72113;SDS011;59989;46.220;19.888;2022-08-19T03:38:40;15.88;;;9.65;;
72113;SDS011;59989;46.220;19.888;2022-08-19T03:41:48;16.07;;;9.20;;
72113;SDS011;59989;46.220;19.888;2022-08-19T03:45:12;15.60;;;9.43;;
72113;SDS011;59989;46.220;19.888;2022-08-19T03:48:14;19.33;;;9.52;;
72113;SDS011;59989;46.220;19.888;2022-08-19T03:51:23;16.23;;;9.48;;
72113;SDS011;59989;46.220;19.888;2022-08-19T03:54:32;15.35;;;9.95;;
72113;SDS011;59989;46.220;19.888;2022-08-19T03:57:35;15.07;;;9.13;;
72113;SDS011;59989;46.220;19.888;2022-08-19T04:00:41;14.68;;;8.80;;
72113;SDS011;59989;46.220;19.888;2022-08-19T04:03:44;14.23;;;8.73;;
72113;SDS011;59989;46.220;19.888;2022-08-19T04:06:50;17.35;;;9.50;;
72113;SDS011;59989;46.220;19.888;2022-08-19T04:09:53;17.95;;;9.30;;
72113;SDS011;59989;46.220;19.888;2022-08-19T04:12:56;18.67;;;9.03;;
72113;SDS011;59989;46.220;19.888;2022-08-19T04:15:58;18.83;;;8.98;;
72113;SDS011;59989;46.220;19.888;2022-08-19T04:19:01;16.38;;;8.68;;
72113;SDS011;59989;46.220;19.888;2022-08-19T04:22:05;17.02;;;9.07;;
72113;SDS011;59989;46.220;19.888;2022-08-19T04:25:09;19.55;;;9.45;;
72113;SDS011;59989;46.220;19.888;2022-08-19T04:28:12;14.43;;;9.10;;
72113;SDS011;59989;46.220;19.888;2022-08-19T04:31:16;13.25;;;8.25;;
72113;SDS011;59989;46.220;19.888;2022-08-19T04:34:31;18.17;;;9.13;;
72113;SDS011;59989;46.220;19.888;2022-08-19T04:37:34;20.30;;;8.98;;
72113;SDS011;59989;46.220;19.888;2022-08-19T04:40:40;16.98;;;8.70;;
72113;SDS011;59989;46.220;19.888;2022-08-19T04:44:01;18.70;;;8.80;;
72113;SDS011;59989;46.220;19.888;2022-08-19T04:47:05;15.65;;;8.50;;
72113;SDS011;59989;46.220;19.888;2022-08-19T04:50:12;15.15;;;8.98;;
72113;SDS011;59989;46.220;19.888;2022-08-19T04:53:15;17.67;;;8.38;;
72113;SDS011;59989;46.220;19.888;2022-08-19T04:56:18;14.60;;;8.00;;
72113;SDS011;59989;46.220;19.888;2022-08-19T04:59:24;11.73;;;7.43;;
72113;SDS011;59989;46.220;19.888;2022-08-19T05:02:26;14.52;;;8.23;;
72113;SDS011;59989;46.220;19.888;2022-08-19T05:05:29;14.10;;;7.65;;
72113;SDS011;59989;46.220;19.888;2022-08-19T05:08:46;17.35;;;8.45;;
72113;SDS011;59989;46.220;19.888;2022-08-19T05:11:50;15.52;;;7.15;;
72113;SDS011;59989;46.220;19.888;2022-08-19T05:14:56;15.87;;;7.20;;
72113;SDS011;59989;46.220;19.888;2022-08-19T05:17:59;13.52;;;7.00;;
72113;SDS011;59989;46.220;19.888;2022-08-19T05:21:22;14.52;;;7.50;;
72113;SDS011;59989;46.220;19.888;2022-08-19T05:24:44;13.73;;;6.97;;
72113;SDS011;59989;46.220;19.888;2022-08-19T05:28:06;18.17;;;7.65;;
72113;SDS011;59989;46.220;19.888;2022-08-19T05:31:09;16.43;;;7.70;;
72113;SDS011;59989;46.220;19.888;2022-08-19T05:34:11;17.88;;;7.30;;
72113;SDS011;59989;46.220;19.888;2022-08-19T05:37:21;13.10;;;7.38;;
72113;SDS011;59989;46.220;19.888;2022-08-19T05:40:24;16.17;;;7.50;;
72113;SDS011;59989;46.220;19.888;2022-08-19T05:43:27;15.30;;;7.93;;
72113;SDS011;59989;46.220;19.888;2022-08-19T05:46:30;14.63;;;7.87;;
72113;SDS011;59989;46.220;19.888;2022-08-19T05:49:34;15.07;;;8.48;;
72113;SDS011;59989;46.220;19.888;2022-08-19T05:52:38;13.68;;;7.80;;
72113;SDS011;59989;46.220;19.888;2022-08-19T05:55:51;15.70;;;8.15;;
72113;SDS011;59989;46.220;19.888;2022-08-19T05:58:53;17.10;;;9.68;;
72113;SDS011;59989;46.220;19.888;2022-08-19T06:01:56;17.60;;;9.27;;
72113;SDS011;59989;46.220;19.888;2022-08-19T06:04:58;21.73;;;8.88;;
72113;SDS011;59989;46.220;19.888;2022-08-19T06:08:01;18.00;;;9.25;;
72113;SDS011;59989;46.220;19.888;2022-08-19T06:14:18;20.17;;;9.27;;
72113;SDS011;59989;46.220;19.888;2022-08-19T06:17:29;17.00;;;10.07;;
72113;SDS011;59989;46.220;19.888;2022-08-19T06:20:33;18.20;;;9.65;;
72113;SDS011;59989;46.220;19.888;2022-08-19T06:23:55;23.17;;;10.05;;
72113;SDS011;59989;46.220;19.888;2022-08-19T06:26:59;19.33;;;10.00;;
72113;SDS011;59989;46.220;19.888;2022-08-19T06:30:03;21.42;;;10.10;;
72113;SDS011;59989;46.220;19.888;2022-08-19T06:33:06;16.40;;;10.07;;
72113;SDS011;59989;46.220;19.888;2022-08-19T06:36:22;22.02;;;9.70;;
72113;SDS011;59989;46.220;19.888;2022-08-19T06:39:33;21.25;;;10.05;;
72113;SDS011;59989;46.220;19.888;2022-08-19T06:42:37;18.90;;;9.02;;
72113;SDS011;59989;46.220;19.888;2022-08-19T06:45:56;19.63;;;9.60;;
72113;SDS011;59989;46.220;19.888;2022-08-19T06:49:00;15.90;;;9.43;;
72113;SDS011;59989;46.220;19.888;2022-08-19T06:52:04;23.67;;;9.30;;
72113;SDS011;59989;46.220;19.888;2022-08-19T06:55:07;17.17;;;8.85;;
72113;SDS011;59989;46.220;19.888;2022-08-19T06:58:10;18.70;;;9.38;;
72113;SDS011;59989;46.220;19.888;2022-08-19T07:01:12;19.42;;;9.02;;
72113;SDS011;59989;46.220;19.888;2022-08-19T07:04:16;17.53;;;9.00;;
72113;SDS011;59989;46.220;19.888;2022-08-19T07:07:24;17.67;;;8.75;;
72113;SDS011;59989;46.220;19.888;2022-08-19T07:10:27;17.42;;;8.73;;
72113;SDS011;59989;46.220;19.888;2022-08-19T07:13:29;17.45;;;8.77;;
72113;SDS011;59989;46.220;19.888;2022-08-19T07:16:37;15.40;;;8.70;;
72113;SDS011;59989;46.220;19.888;2022-08-19T07:19:44;20.30;;;8.47;;
72113;SDS011;59989;46.220;19.888;2022-08-19T07:22:48;15.35;;;8.80;;
72113;SDS011;59989;46.220;19.888;2022-08-19T07:25:51;15.25;;;8.77;;
72113;SDS011;59989;46.220;19.888;2022-08-19T07:28:54;20.15;;;8.45;;
72113;SDS011;59989;46.220;19.888;2022-08-19T07:31:57;18.58;;;8.73;;
72113;SDS011;59989;46.220;19.888;2022-08-19T07:35:01;21.50;;;8.57;;
72113;SDS011;59989;46.220;19.888;2022-08-19T07:38:05;14.70;;;7.85;;
72113;SDS011;59989;46.220;19.888;2022-08-19T07:41:11;16.83;;;7.75;;
72113;SDS011;59989;46.220;19.888;2022-08-19T07:44:16;20.20;;;8.38;;
72113;SDS011;59989;46.220;19.888;2022-08-19T07:47:19;16.25;;;8.32;;
72113;SDS011;59989;46.220;19.888;2022-08-19T07:50:42;17.50;;;7.43;;
72113;SDS011;59989;46.220;19.888;2022-08-19T07:53:45;18.25;;;7.80;;
72113;SDS011;59989;46.220;19.888;2022-08-19T07:56:48;15.50;;;7.20;;
72113;SDS011;59989;46.220;19.888;2022-08-19T07:59:53;15.60;;;7.47;;
72113;SDS011;59989;46.220;19.888;2022-08-19T08:02:56;15.05;;;7.13;;
72113;SDS011;59989;46.220;19.888;2022-08-19T08:05:59;21.60;;;7.20;;
72113;SDS011;59989;46.220;19.888;2022-08-19T08:09:21;20.17;;;7.68;;
72113;SDS011;59989;46.220;19.888;2022-08-19T08:12:28;16.20;;;7.07;;
72113;SDS011;59989;46.220;19.888;2022-08-19T08:15:43;16.30;;;7.03;;
72113;SDS011;59989;46.220;19.888;2022-08-19T08:18:46;15.82;;;6.88;;
72113;SDS011;59989;46.220;19.888;2022-08-19T08:21:55;20.60;;;7.20;;
72113;SDS011;59989;46.220;19.888;2022-08-19T08:25:33;15.02;;;6.78;;
72113;SDS011;59989;46.220;19.888;2022-08-19T08:28:33;12.65;;;6.25;;
72113;SDS011;59989;46.220;19.888;2022-08-19T08:31:36;16.92;;;6.30;;
72113;SDS011;59989;46.220;19.888;2022-08-19T08:34:38;14.98;;;6.57;;
72113;SDS011;59989;46.220;19.888;2022-08-19T08:37:41;16.87;;;6.57;;
72113;SDS011;59989;46.220;19.888;2022-08-19T08:43:52;13.38;;;6.28;;
72113;SDS011;59989;46.220;19.888;2022-08-19T08:46:56;15.40;;;6.55;;
72113;SDS011;59989;46.220;19.888;2022-08-19T08:50:05;14.85;;;6.30;;
72113;SDS011;59989;46.220;19.888;2022-08-19T08:53:13;13.40;;;6.20;;
72113;SDS011;59989;46.220;19.888;2022-08-19T08:56:33;13.88;;;6.15;;
72113;SDS011;59989;46.220;19.888;2022-08-19T08:59:38;13.98;;;6.03;;
72113;SDS011;59989;46.220;19.888;2022-08-19T09:02:43;15.27;;;6.20;;
72113;SDS011;59989;46.220;19.888;2022-08-19T09:12:44;14.35;;;6.70;;
72113;SDS011;59989;46.220;19.888;2022-08-19T09:15:50;10.48;;;5.40;;
72113;SDS011;59989;46.220;19.888;2022-08-19T09:19:04;10.32;;;5.78;;
72113;SDS011;59989;46.220;19.888;2022-08-19T09:22:09;12.10;;;5.70;;
72113;SDS011;59989;46.220;19.888;2022-08-19T09:25:13;14.03;;;6.60;;
72113;SDS011;59989;46.220;19.888;2022-08-19T09:28:17;13.73;;;6.70;;
72113;SDS011;59989;46.220;19.888;2022-08-19T09:31:24;14.45;;;6.50;;
72113;SDS011;59989;46.220;19.888;2022-08-19T09:34:28;12.05;;;6.40;;
72113;SDS011;59989;46.220;19.888;2022-08-19T09:37:38;12.05;;;6.13;;
72113;SDS011;59989;46.220;19.888;2022-08-19T09:40:41;12.77;;;6.60;;
72113;SDS011;59989;46.220;19.888;2022-08-19T09:43:45;9.98;;;6.30;;
72113;SDS011;59989;46.220;19.888;2022-08-19T09:46:49;14.20;;;6.40;;
72113;SDS011;59989;46.220;19.888;2022-08-19T09:49:53;15.68;;;6.00;;
72113;SDS011;59989;46.220;19.888;2022-08-19T09:52:56;13.70;;;6.13;;
72113;SDS011;59989;46.220;19.888;2022-08-19T09:56:00;11.10;;;5.77;;
72113;SDS011;59989;46.220;19.888;2022-08-19T09:59:05;16.90;;;6.20;;
72113;SDS011;59989;46.220;19.888;2022-08-19T10:02:08;10.43;;;5.60;;
72113;SDS011;59989;46.220;19.888;2022-08-19T10:05:12;14.50;;;5.57;;
72113;SDS011;59989;46.220;19.888;2022-08-19T10:08:34;16.52;;;5.63;;
72113;SDS011;59989;46.220;19.888;2022-08-19T10:11:42;10.03;;;5.00;;
72113;SDS011;59989;46.220;19.888;2022-08-19T10:14:56;15.70;;;5.97;;
72113;SDS011;59989;46.220;19.888;2022-08-19T10:17:58;15.20;;;5.35;;
72113;SDS011;59989;46.220;19.888;2022-08-19T10:21:03;10.88;;;5.72;;
72113;SDS011;59989;46.220;19.888;2022-08-19T10:24:12;13.70;;;5.60;;
72113;SDS011;59989;46.220;19.888;2022-08-19T10:27:15;15.33;;;5.40;;
72113;SDS011;59989;46.220;19.888;2022-08-19T10:30:17;13.93;;;5.55;;
72113;SDS011;59989;46.220;19.888;2022-08-19T10:33:21;11.20;;;5.03;;
72113;SDS011;59989;46.220;19.888;2022-08-19T10:36:43;12.65;;;4.95;;
72113;SDS011;59989;46.220;19.888;2022-08-19T10:39:57;13.77;;;5.53;;
72113;SDS011;59989;46.220;19.888;2022-08-19T10:43:00;12.20;;;5.67;;
72113;SDS011;59989;46.220;19.888;2022-08-19T10:46:02;14.57;;;5.28;;
72113;SDS011;59989;46.220;19.888;2022-08-19T10:49:10;11.43;;;5.20;;
72113;SDS011;59989;46.220;19.888;2022-08-19T10:52:13;12.00;;;4.80;;
72113;SDS011;59989;46.220;19.888;2022-08-19T10:55:34;10.57;;;4.55;;
72113;SDS011;59989;46.220;19.888;2022-08-19T10:58:55;12.97;;;5.10;;
72113;SDS011;59989;46.220;19.888;2022-08-19T11:02:00;13.75;;;4.97;;
72113;SDS011;59989;46.220;19.888;2022-08-19T11:05:04;11.00;;;4.82;;
72113;SDS011;59989;46.220;19.888;2022-08-19T11:08:14;13.38;;;5.47;;
72113;SDS011;59989;46.220;19.888;2022-08-19T11:11:25;11.75;;;5.25;;
72113;SDS011;59989;46.220;19.888;2022-08-19T11:14:29;13.03;;;5.23;;
72113;SDS011;59989;46.220;19.888;2022-08-19T11:17:35;11.60;;;4.90;;
72113;SDS011;59989;46.220;19.888;2022-08-19T11:20:39;14.90;;;5.72;;
72113;SDS011;59989;46.220;19.888;2022-08-19T11:23:41;13.55;;;5.07;;
72113;SDS011;59989;46.220;19.888;2022-08-19T11:26:44;13.95;;;5.75;;
72113;SDS011;59989;46.220;19.888;2022-08-19T11:29:47;12.03;;;5.47;;
72113;SDS011;59989;46.220;19.888;2022-08-19T11:32:49;16.08;;;5.10;;
72113;SDS011;59989;46.220;19.888;2022-08-19T11:35:52;15.05;;;5.40;;
72113;SDS011;59989;46.220;19.888;2022-08-19T11:38:55;15.32;;;5.18;;
72113;SDS011;59989;46.220;19.888;2022-08-19T11:41:58;11.40;;;4.75;;
72113;SDS011;59989;46.220;19.888;2022-08-19T11:45:01;15.13;;;5.00;;
72113;SDS011;59989;46.220;19.888;2022-08-19T11:48:05;13.57;;;4.68;;
72113;SDS011;59989;46.220;19.888;2022-08-19T11:51:14;12.13;;;5.43;;
72113;SDS011;59989;46.220;19.888;2022-08-19T11:54:19;17.38;;;5.18;;
72113;SDS011;59989;46.220;19.888;2022-08-19T11:57:21;12.75;;;5.32;;
72113;SDS011;59989;46.220;19.888;2022-08-19T12:00:23;17.43;;;5.47;;
72113;SDS011;59989;46.220;19.888;2022-08-19T12:03:26;15.50;;;5.40;;
72113;SDS011;59989;46.220;19.888;2022-08-19T12:06:30;13.82;;;5.32;;
72113;SDS011;59989;46.220;19.888;2022-08-19T12:09:36;14.65;;;5.22;;
72113;SDS011;59989;46.220;19.888;2022-08-19T12:12:43;12.05;;;5.22;;
72113;SDS011;59989;46.220;19.888;2022-08-19T12:15:59;11.33;;;5.50;;
72113;SDS011;59989;46.220;19.888;2022-08-19T12:19:03;17.75;;;5.53;;
72113;SDS011;59989;46.220;19.888;2022-08-19T12:22:06;14.18;;;5.43;;
72113;SDS011;59989;46.220;19.888;2022-08-19T12:25:10;15.80;;;5.55;;
72113;SDS011;59989;46.220;19.888;2022-08-19T12:28:13;15.45;;;5.88;;
72113;SDS011;59989;46.220;19.888;2022-08-19T12:31:16;15.23;;;5.53;;
72113;SDS011;59989;46.220;19.888;2022-08-19T12:34:19;12.35;;;5.25;;
72113;SDS011;59989;46.220;19.888;2022-08-19T12:37:22;14.75;;;6.00;;
72113;SDS011;59989;46.220;19.888;2022-08-19T12:40:24;13.85;;;5.72;;
72113;SDS011;59989;46.220;19.888;2022-08-19T12:43:27;15.20;;;5.45;;
72113;SDS011;59989;46.220;19.888;2022-08-19T12:46:32;12.90;;;5.93;;
72113;SDS011;59989;46.220;19.888;2022-08-19T12:49:35;13.68;;;5.85;;
72113;SDS011;59989;46.220;19.888;2022-08-19T12:52:56;20.05;;;6.60;;
72113;SDS011;59989;46.220;19.888;2022-08-19T12:55:59;15.65;;;6.13;;
72113;SDS011;59989;46.220;19.888;2022-08-19T12:59:02;12.98;;;6.20;;
72113;SDS011;59989;46.220;19.888;2022-08-19T13:02:06;16.17;;;6.90;;
72113;SDS011;59989;46.220;19.888;2022-08-19T13:05:10;17.63;;;6.13;;
72113;SDS011;59989;46.220;19.888;2022-08-19T13:08:15;15.32;;;5.93;;
72113;SDS011;59989;46.220;19.888;2022-08-19T13:11:19;15.38;;;5.97;;
72113;SDS011;59989;46.220;19.888;2022-08-19T13:14:25;13.95;;;6.25;;
72113;SDS011;59989;46.220;19.888;2022-08-19T13:17:28;16.27;;;5.90;;
72113;SDS011;59989;46.220;19.888;2022-08-19T13:20:30;14.07;;;6.47;;
72113;SDS011;59989;46.220;19.888;2022-08-19T13:23:33;16.52;;;7.43;;
72113;SDS011;59989;46.220;19.888;2022-08-19T13:26:37;13.35;;;6.13;;
72113;SDS011;59989;46.220;19.888;2022-08-19T13:29:42;18.23;;;6.57;;
72113;SDS011;59989;46.220;19.888;2022-08-19T13:33:04;13.93;;;6.17;;
72113;SDS011;59989;46.220;19.888;2022-08-19T13:36:13;13.82;;;6.65;;
72113;SDS011;59989;46.220;19.888;2022-08-19T13:39:16;14.10;;;6.63;;
72113;SDS011;59989;46.220;19.888;2022-08-19T13:42:18;16.67;;;6.47;;
72113;SDS011;59989;46.220;19.888;2022-08-19T13:45:21;13.63;;;6.50;;
72113;SDS011;59989;46.220;19.888;2022-08-19T13:48:26;11.40;;;6.00;;
72113;SDS011;59989;46.220;19.888;2022-08-19T13:51:29;14.32;;;6.70;;
72113;SDS011;59989;46.220;19.888;2022-08-19T13:54:31;20.85;;;6.40;;
72113;SDS011;59989;46.220;19.888;2022-08-19T13:57:34;19.17;;;6.18;;
72113;SDS011;59989;46.220;19.888;2022-08-19T14:00:40;12.27;;;6.05;;
72113;SDS011;59989;46.220;19.888;2022-08-19T14:03:45;13.17;;;6.30;;
72113;SDS011;59989;46.220;19.888;2022-08-19T14:06:48;17.17;;;7.05;;
72113;SDS011;59989;46.220;19.888;2022-08-19T14:09:51;17.20;;;6.15;;
72113;SDS011;59989;46.220;19.888;2022-08-19T14:12:54;15.40;;;5.75;;
72113;SDS011;59989;46.220;19.888;2022-08-19T14:15:57;17.77;;;6.60;;
72113;SDS011;59989;46.220;19.888;2022-08-19T14:19:00;13.97;;;6.27;;
72113;SDS011;59989;46.220;19.888;2022-08-19T14:22:03;14.05;;;6.65;;
72113;SDS011;59989;46.220;19.888;2022-08-19T14:25:07;16.98;;;6.45;;
72113;SDS011;59989;46.220;19.888;2022-08-19T14:28:12;14.88;;;6.25;;
72113;SDS011;59989;46.220;19.888;2022-08-19T14:31:15;16.30;;;6.20;;
72113;SDS011;59989;46.220;19.888;2022-08-19T14:34:20;14.97;;;6.40;;
72113;SDS011;59989;46.220;19.888;2022-08-19T14:37:24;15.90;;;5.93;;
72113;SDS011;59989;46.220;19.888;2022-08-19T14:40:30;17.65;;;6.53;;
72113;SDS011;59989;46.220;19.888;2022-08-19T14:43:33;22.48;;;5.78;;
72113;SDS011;59989;46.220;19.888;2022-08-19T14:46:36;15.27;;;5.10;;
72113;SDS011;59989;46.220;19.888;2022-08-19T14:49:38;18.93;;;5.00;;
72113;SDS011;59989;46.220;19.888;2022-08-19T14:52:46;14.07;;;4.93;;
72113;SDS011;59989;46.220;19.888;2022-08-19T14:55:49;17.20;;;4.90;;
72113;SDS011;59989;46.220;19.888;2022-08-19T14:58:55;12.95;;;5.85;;
72113;SDS011;59989;46.220;19.888;2022-08-19T15:02:01;16.83;;;5.88;;
72113;SDS011;59989;46.220;19.888;2022-08-19T15:05:23;15.23;;;5.93;;
72113;SDS011;59989;46.220;19.888;2022-08-19T15:08:27;21.58;;;6.18;;
72113;SDS011;59989;46.220;19.888;2022-08-19T15:11:30;41.30;;;7.35;;
72113;SDS011;59989;46.220;19.888;2022-08-19T15:14:35;57.80;;;7.47;;
72113;SDS011;59989;46.220;19.888;2022-08-19T15:17:40;36.25;;;5.50;;
72113;SDS011;59989;46.220;19.888;2022-08-19T15:20:47;34.97;;;5.40;;
72113;SDS011;59989;46.220;19.888;2022-08-19T15:23:51;84.55;;;8.10;;
72113;SDS011;59989;46.220;19.888;2022-08-19T15:26:54;46.53;;;5.80;;
72113;SDS011;59989;46.220;19.888;2022-08-19T15:29:57;39.75;;;5.57;;
72113;SDS011;59989;46.220;19.888;2022-08-19T15:33:03;40.30;;;4.38;;
72113;SDS011;59989;46.220;19.888;2022-08-19T15:36:06;37.33;;;4.77;;
72113;SDS011;59989;46.220;19.888;2022-08-19T15:39:11;30.65;;;5.47;;
72113;SDS011;59989;46.220;19.888;2022-08-19T15:42:14;26.50;;;4.07;;
72113;SDS011;59989;46.220;19.888;2022-08-19T15:45:30;43.22;;;6.03;;
72113;SDS011;59989;46.220;19.888;2022-08-19T15:48:36;30.40;;;4.22;;
72113;SDS011;59989;46.220;19.888;2022-08-19T15:51:40;46.77;;;5.00;;
72113;SDS011;59989;46.220;19.888;2022-08-19T15:54:44;34.97;;;4.55;;
72113;SDS011;59989;46.220;19.888;2022-08-19T15:57:46;25.88;;;4.65;;
72113;SDS011;59989;46.220;19.888;2022-08-19T16:01:08;26.27;;;4.15;;
72113;SDS011;59989;46.220;19.888;2022-08-19T16:04:29;19.75;;;3.83;;
72113;SDS011;59989;46.220;19.888;2022-08-19T16:07:50;20.93;;;4.07;;
72113;SDS011;59989;46.220;19.888;2022-08-19T16:10:53;25.70;;;4.53;;
72113;SDS011;59989;46.220;19.888;2022-08-19T16:13:56;26.50;;;3.85;;
72113;SDS011;59989;46.220;19.888;2022-08-19T16:17:00;19.58;;;3.60;;
72113;SDS011;59989;46.220;19.888;2022-08-19T16:20:03;25.00;;;4.30;;
72113;SDS011;59989;46.220;19.888;2022-08-19T16:23:08;28.40;;;4.30;;
72113;SDS011;59989;46.220;19.888;2022-08-19T16:26:11;24.95;;;3.72;;
72113;SDS011;59989;46.220;19.888;2022-08-19T16:29:16;24.80;;;3.88;;
72113;SDS011;59989;46.220;19.888;2022-08-19T16:32:35;17.05;;;3.90;;
72113;SDS011;59989;46.220;19.888;2022-08-19T16:35:38;18.35;;;3.42;;
72113;SDS011;59989;46.220;19.888;2022-08-19T16:38:40;16.47;;;3.37;;
72113;SDS011;59989;46.220;19.888;2022-08-19T16:41:43;23.98;;;3.53;;
72113;SDS011;59989;46.220;19.888;2022-08-19T16:44:46;20.00;;;3.65;;
72113;SDS011;59989;46.220;19.888;2022-08-19T16:47:49;16.25;;;3.97;;
72113;SDS011;59989;46.220;19.888;2022-08-19T16:50:52;22.17;;;4.30;;
72113;SDS011;59989;46.220;19.888;2022-08-19T16:53:54;18.70;;;4.40;;
72113;SDS011;59989;46.220;19.888;2022-08-19T16:56:57;19.58;;;3.42;;
72113;SDS011;59989;46.220;19.888;2022-08-19T16:59:59;20.77;;;3.85;;
72113;SDS011;59989;46.220;19.888;2022-08-19T17:03:09;18.33;;;3.60;;
72113;SDS011;59989;46.220;19.888;2022-08-19T17:06:18;16.98;;;3.70;;
72113;SDS011;59989;46.220;19.888;2022-08-19T17:09:22;18.07;;;3.20;;
72113;SDS011;59989;46.220;19.888;2022-08-19T17:12:27;18.98;;;3.33;;
72113;SDS011;59989;46.220;19.888;2022-08-19T17:15:33;21.02;;;3.17;;
72113;SDS011;59989;46.220;19.888;2022-08-19T17:18:36;22.38;;;3.75;;
72113;SDS011;59989;46.220;19.888;2022-08-19T17:21:39;18.98;;;3.63;;
72113;SDS011;59989;46.220;19.888;2022-08-19T17:24:42;17.67;;;3.67;;
72113;SDS011;59989;46.220;19.888;2022-08-19T17:27:44;43.28;;;4.13;;
72113;SDS011;59989;46.220;19.888;2022-08-19T17:30:47;21.08;;;3.08;;
72113;SDS011;59989;46.220;19.888;2022-08-19T17:33:49;21.60;;;3.80;;
72113;SDS011;59989;46.220;19.888;2022-08-19T17:36:53;17.88;;;3.15;;
72113;SDS011;59989;46.220;19.888;2022-08-19T17:39:57;21.97;;;2.83;;
72113;SDS011;59989;46.220;19.888;2022-08-19T17:43:00;19.83;;;3.35;;
72113;SDS011;59989;46.220;19.888;2022-08-19T17:46:03;19.00;;;3.22;;
72113;SDS011;59989;46.220;19.888;2022-08-19T17:49:06;16.90;;;2.78;;
72113;SDS011;59989;46.220;19.888;2022-08-19T17:52:09;17.65;;;3.10;;
72113;SDS011;59989;46.220;19.888;2022-08-19T17:55:13;18.40;;;3.30;;
72113;SDS011;59989;46.220;19.888;2022-08-19T17:58:15;18.77;;;3.35;;
72113;SDS011;59989;46.220;19.888;2022-08-19T18:01:22;16.05;;;3.13;;
72113;SDS011;59989;46.220;19.888;2022-08-19T18:04:27;19.23;;;3.13;;
72113;SDS011;59989;46.220;19.888;2022-08-19T18:07:30;20.15;;;3.42;;
72113;SDS011;59989;46.220;19.888;2022-08-19T18:10:35;22.17;;;3.70;;
72113;SDS011;59989;46.220;19.888;2022-08-19T18:13:38;17.02;;;2.85;;
72113;SDS011;59989;46.220;19.888;2022-08-19T18:16:41;16.27;;;3.17;;
72113;SDS011;59989;46.220;19.888;2022-08-19T18:19:44;20.27;;;3.80;;